Time;durP1;ratioP1;P1;durP2;ratioP2;P2;SDS_P1;SDS_P2;PMS_P1;PMS_P2;Temp;Humidity;BMP_temperature;BMP_pressure;BME280_temperature;BME280_humidity;BME280_pressure;Samples;Min_cycle;Max_cycle;Signal;HPM_P1;HPM_P2
2022/07/13 00:02:03;;;;;;;;;;;;;;;16.98;61.49;99901.06;1705488;82;20175;-66
2022/07/13 00:04:31;;;;;;;;;;;;;;;16.97;61.43;99897.58;1700901;82;21158;-68
2022/07/13 00:07:00;;;;;;;;;;;;;;;16.79;61.84;99894.63;1704784;82;20751;-67
2022/07/13 00:09:27;;;;;;;;;;;;;;;16.76;62.25;99888.52;1702254;82;20249;-68
2022/07/13 00:11:53;;;;;;;;;;;;;;;16.75;62.48;99886.37;1706059;82;20254;-68
2022/07/13 00:14:19;;;;;;;;;;;;;;;16.75;62.51;99893.64;1705642;82;20238;-68
2022/07/13 00:16:46;;;;;;;;;;;;;;;16.75;62.82;99884.20;1707734;84;21558;-67
2022/07/13 00:19:12;;;;;;;;;;;;;;;16.73;62.72;99885.06;1705129;82;20230;-68
2022/07/13 00:21:39;;;;;;;;;;;;;;;16.72;62.81;99878.87;1707056;82;20176;-67
2022/07/13 00:24:05;;;;;;;;;;;;;;;16.72;62.80;99879.44;1707458;84;20366;-67
2022/07/13 00:26:32;;;;;;;;;;;;;;;16.73;62.97;99874.27;1703863;83;20182;-67
2022/07/13 00:28:58;;;;;;;;;;;;;;;16.73;63.10;99867.53;1702635;84;22216;-67
2022/07/13 00:31:24;;;;;;;;;;;;;;;16.74;63.09;99865.06;1704177;84;20139;-69
2022/07/13 00:33:50;;;;;;;;;;;;;;;16.72;63.16;99861.91;1703987;84;20171;-68
2022/07/13 00:36:17;;;;;;;;;;;;;;;16.71;63.25;99855.70;1704368;84;20142;-66
2022/07/13 00:38:43;;;;;;;;;;;;;;;16.86;62.97;99849.10;1705426;84;20208;-66
2022/07/13 00:41:10;;;;;;;;;;;;;;;16.93;62.70;99845.38;1707129;84;21790;-68
2022/07/13 00:43:36;;;;;;;;;;;;;;;16.95;62.62;99839.12;1706599;84;20237;-67
2022/07/13 00:46:02;;;;;;;;;;;;;;;16.98;62.46;99838.48;1701590;84;20151;-68
2022/07/13 00:48:29;;;;;;;;;;;;;;;16.98;62.35;99829.05;1701883;84;20269;-69
2022/07/13 00:50:56;;;;;;;;;;;;;;;16.96;62.22;99829.11;1701586;84;20167;-67
2022/07/13 00:53:23;;;;;;;;;;;;;;;16.95;62.24;99825.63;1675842;84;21173;-68
2022/07/13 00:55:50;;;;;;;;;;;;;;;16.93;62.23;99827.05;1675626;84;20226;-67
2022/07/13 00:58:17;;;;;;;;;;;;;;;16.93;62.26;99823.80;1701845;84;20175;-68
2022/07/13 01:00:43;;;;;;;;;;;;;;;16.92;62.25;99811.98;1705366;84;20399;-68
2022/07/13 01:03:10;;;;;;;;;;;;;;;16.90;62.18;99813.63;1701636;84;20206;-68
2022/07/13 01:05:36;;;;;;;;;;;;;;;16.90;62.17;99821.73;1703006;84;21290;-68
2022/07/13 01:08:04;;;;;;;;;;;;;;;16.90;62.17;99814.98;1719931;83;20267;-68
2022/07/13 01:10:30;;;;;;;;;;;;;;;16.88;62.26;99811.83;1724107;83;20153;-67
2022/07/13 01:12:57;;;;;;;;;;;;;;;16.87;62.35;99811.01;1724782;83;20161;-68
2022/07/13 01:15:23;;;;;;;;;;;;;;;16.87;62.29;99803.48;1724460;83;20585;-67
2022/07/13 01:17:50;;;;;;;;;;;;;;;16.86;62.15;99804.59;1718739;83;21196;-67
2022/07/13 01:20:17;;;;;;;;;;;;;;;16.84;62.13;99802.76;1701685;84;20250;-67
2022/07/13 01:22:48;;;;;;;;;;;;;;;16.83;62.11;99802.53;1701738;84;20544;-67
2022/07/13 01:25:17;;;;;;;;;;;;;;;16.82;62.11;99792.86;1701646;84;20167;-67
2022/07/13 01:27:47;;;;;;;;;;;;;;;16.81;62.13;99795.30;1701605;84;20163;-67
2022/07/13 01:30:13;;;;;;;;;;;;;;;16.82;62.08;99795.56;1701665;84;21132;-67
2022/07/13 01:32:46;;;;;;;;;;;;;;;16.83;62.00;99790.39;1702255;84;20199;-67
2022/07/13 01:35:14;;;;;;;;;;;;;;;16.83;62.01;99788.48;1705265;82;20229;-67
2022/07/13 01:37:41;;;;;;;;;;;;;;;16.86;61.95;99780.33;1705493;82;20184;-67
2022/07/13 01:40:08;;;;;;;;;;;;;;;16.86;61.86;99783.02;1702999;82;20202;-67
2022/07/13 01:42:47;;;;;;;;;;;;;;;16.87;61.73;99779.20;1705063;82;21970;-68
2022/07/13 01:45:21;;;;;;;;;;;;;;;16.87;61.67;99777.30;1704307;82;20178;-67
2022/07/13 01:47:51;;;;;;;;;;;;;;;16.86;61.62;99776.28;1674131;84;20498;-68
2022/07/13 01:50:20;;;;;;;;;;;;;;;16.86;61.61;99775.72;1673998;84;20207;-67
2022/07/13 01:52:47;;;;;;;;;;;;;;;16.88;61.66;99769.45;1670766;84;20456;-67
2022/07/13 01:55:14;;;;;;;;;;;;;;;16.92;61.76;99772.31;1668738;86;21049;-68
2022/07/13 01:57:43;;;;;;;;;;;;;;;16.95;61.61;99772.23;1669425;85;20188;-68
2022/07/13 02:00:14;;;;;;;;;;;;;;;16.95;61.54;99767.63;1674450;84;20176;-68
2022/07/13 02:02:41;;;;;;;;;;;;;;;16.96;61.49;99756.28;1673601;84;20216;-67
2022/07/13 02:05:09;;;;;;;;;;;;;;;16.96;61.34;99769.20;1673435;84;20485;-66
2022/07/13 02:07:38;;;;;;;;;;;;;;;16.98;61.24;99756.73;1673071;84;21119;-68
2022/07/13 02:10:07;;;;;;;;;;;;;;;16.97;60.92;99753.25;1670756;84;20216;-67
2022/07/13 02:12:37;;;;;;;;;;;;;;;16.99;60.94;99746.99;1645646;84;20153;-68
2022/07/13 02:15:07;;;;;;;;;;;;;;;16.99;60.75;99752.39;1673688;84;20228;-68
2022/07/13 02:17:36;;;;;;;;;;;;;;;17.01;60.81;99746.12;1674346;84;20182;-68
2022/07/13 02:20:03;;;;;;;;;;;;;;;17.01;60.70;99746.12;1664171;84;22057;-68
2022/07/13 02:22:42;;;;;;;;;;;;;;;17.01;60.64;99748.83;1659806;84;20148;-67
2022/07/13 02:25:10;;;;;;;;;;;;;;;17.01;60.46;99744.78;1670523;84;20181;-66
2022/07/13 02:27:39;;;;;;;;;;;;;;;17.03;60.39;99735.79;1673830;84;20149;-68
2022/07/13 02:30:08;;;;;;;;;;;;;;;17.03;60.19;99743.88;1674487;85;20149;-67
2022/07/13 02:32:35;;;;;;;;;;;;;;;17.06;60.23;99743.25;1671934;84;21244;-69
2022/07/13 02:35:03;;;;;;;;;;;;;;;17.06;60.41;99741.90;1674382;84;20189;-67
2022/07/13 02:37:30;;;;;;;;;;;;;;;17.06;60.59;99740.55;1674321;84;20156;-67
2022/07/13 02:39:57;;;;;;;;;;;;;;;17.07;60.84;99739.42;1673525;84;20616;-67
2022/07/13 02:42:24;;;;;;;;;;;;;;;17.07;60.98;99737.29;1674107;84;20212;-66
2022/07/13 02:44:51;;;;;;;;;;;;;;;17.02;60.88;99733.42;1674471;84;21837;-69
2022/07/13 02:47:17;;;;;;;;;;;;;;;16.81;61.52;99730.58;1671545;84;20178;-67
2022/07/13 02:49:44;;;;;;;;;;;;;;;16.76;61.84;99732.89;1671468;84;20153;-68
2022/07/13 02:52:10;;;;;;;;;;;;;;;16.76;62.01;99726.70;1674256;84;20479;-66
2022/07/13 02:54:37;;;;;;;;;;;;;;;16.77;62.20;99731.77;1674748;85;20502;-67
2022/07/13 02:57:05;;;;;;;;;;;;;;;16.78;61.95;99726.63;1673863;85;21142;-67
2022/07/13 02:59:34;;;;;;;;;;;;;;;16.85;62.06;99726.16;1673315;85;20168;-67
2022/07/13 03:02:03;;;;;;;;;;;;;;;16.73;62.60;99735.40;1672308;85;20158;-67
2022/07/13 03:04:30;;;;;;;;;;;;;;;16.72;62.76;99735.17;1675782;85;20149;-68
2022/07/13 03:06:57;;;;;;;;;;;;;;;16.71;63.05;99724.13;1681057;84;20139;-67
2022/07/13 03:09:25;;;;;;;;;;;;;;;16.66;63.22;99722.40;1694474;84;21344;-68
2022/07/13 03:11:52;;;;;;;;;;;;;;;16.60;63.57;99712.31;1694826;84;20151;-68
2022/07/13 03:14:19;;;;;;;;;;;;;;;16.53;63.97;99729.53;1694559;84;20195;-67
2022/07/13 03:16:46;;;;;;;;;;;;;;;16.54;64.22;99727.06;1689843;84;20145;-66
2022/07/13 03:19:14;;;;;;;;;;;;;;;16.48;64.64;99723.49;1670456;84;20376;-67
2022/07/13 03:21:40;;;;;;;;;;;;;;;16.41;64.84;99723.41;1674965;84;21134;-68
2022/07/13 03:24:07;;;;;;;;;;;;;;;16.44;65.26;99711.77;1675557;85;20173;-68
2022/07/13 03:26:35;;;;;;;;;;;;;;;16.62;65.05;99716.84;1674395;84;20177;-68
2022/07/13 03:29:01;;;;;;;;;;;;;;;16.43;65.59;99720.41;1674156;84;20184;-68
2022/07/13 03:31:30;;;;;;;;;;;;;;;16.36;66.03;99722.78;1674180;84;20149;-68
2022/07/13 03:33:58;;;;;;;;;;;;;;;16.34;66.51;99716.34;1673211;84;21165;-68
2022/07/13 03:36:26;;;;;;;;;;;;;;;16.30;66.91;99716.75;1645429;84;20145;-69
2022/07/13 03:38:52;;;;;;;;;;;;;;;16.25;67.17;99714.75;1675036;84;20177;-69
2022/07/13 03:41:19;;;;;;;;;;;;;;;16.21;67.58;99713.80;1674472;85;20278;-68
2022/07/13 03:43:46;;;;;;;;;;;;;;;16.18;68.02;99701.75;1674152;84;20195;-68
2022/07/13 03:46:13;;;;;;;;;;;;;;;16.17;68.30;99702.30;1670970;84;21144;-69
2022/07/13 03:48:39;;;;;;;;;;;;;;;16.15;68.50;99708.55;1671267;84;20154;-68
2022/07/13 03:51:05;;;;;;;;;;;;;;;16.15;68.76;99704.51;1673137;84;20149;-69
2022/07/13 03:53:32;;;;;;;;;;;;;;;16.15;68.90;99688.90;1673658;84;20482;-68
2022/07/13 03:56:00;;;;;;;;;;;;;;;16.12;68.97;99698.95;1674396;85;20438;-68
2022/07/13 03:58:27;;;;;;;;;;;;;;;16.09;69.25;99696.89;1674176;85;21263;-68
2022/07/13 04:00:58;;;;;;;;;;;;;;;16.08;69.52;99693.41;1673312;84;20201;-68
2022/07/13 04:03:25;;;;;;;;;;;;;;;16.06;69.72;99684.87;1675338;84;20201;-68
2022/07/13 04:05:52;;;;;;;;;;;;;;;16.05;69.95;99689.99;1671613;84;20497;-67
2022/07/13 04:08:20;;;;;;;;;;;;;;;15.79;70.72;99695.31;1647683;85;20200;-68
2022/07/13 04:10:48;;;;;;;;;;;;;;;15.68;71.43;99681.91;1674339;84;21092;-67
2022/07/13 04:13:15;;;;;;;;;;;;;;;16.20;70.37;99683.94;1674538;85;20266;-68
2022/07/13 04:15:57;;;;;;;;;;;;;;;16.15;70.29;99687.55;1677154;84;20443;-68
2022/07/13 04:18:36;;;;;;;;;;;;;;;16.20;70.46;99683.94;1694082;84;21073;-68
2022/07/13 04:21:07;;;;;;;;;;;;;;;16.32;70.00;99686.77;1694426;84;20153;-67
2022/07/13 04:23:42;;;;;;;;;;;;;;;16.23;70.04;99689.48;1647992;84;20645;-67
2022/07/13 04:26:19;;;;;;;;;;;;;;;16.19;70.12;99688.53;1652482;86;20188;-66
2022/07/13 04:28:47;;;;;;;;;;;;;;;16.18;70.32;99688.27;1672499;85;20137;-69
2022/07/13 04:31:28;;;;;;;;;;;;;;;16.36;69.92;99681.80;1674278;85;20484;-66
2022/07/13 04:34:05;;;;;;;;;;;;;;;16.33;70.19;99680.30;1675468;85;20154;-67
2022/07/13 04:36:53;;;;;;;;;;;;;;;16.17;70.62;99686.14;1675691;85;21954;-66
2022/07/13 04:39:23;;;;;;;;;;;;;;;16.27;70.61;99678.30;1675509;85;20196;-67
2022/07/13 04:41:56;;;;;;;;;;;;;;;16.24;70.82;99686.23;1674088;85;20153;-66
2022/07/13 04:44:36;;;;;;;;;;;;;;;16.30;70.77;99679.58;1670222;85;20174;-66
2022/07/13 04:47:16;;;;;;;;;;;;;;;16.24;71.10;99677.59;1670359;85;20149;-66
2022/07/13 04:49:55;;;;;;;;;;;;;;;16.26;71.36;99687.50;1670120;86;22169;-67
2022/07/13 04:52:36;;;;;;;;;;;;;;;16.31;71.42;99683.30;1670266;86;20172;-67
2022/07/13 04:55:07;;;;;;;;;;;;;;;16.32;71.31;99684.90;1672967;85;20178;-67
2022/07/13 04:57:37;;;;;;;;;;;;;;;16.36;71.43;99675.63;1675770;85;20187;-67
2022/07/13 05:00:08;;;;;;;;;;;;;;;16.38;71.33;99689.56;1672537;85;20502;-68
2022/07/13 05:02:44;;;;;;;;;;;;;;;16.40;71.33;99677.36;1675919;85;21058;-68
2022/07/13 05:05:21;;;;;;;;;;;;;;;16.45;71.30;99674.26;1675350;85;20126;-66
2022/07/13 05:07:54;;;;;;;;;;;;;;;16.49;71.07;99665.80;1673566;85;20207;-68
2022/07/13 05:10:26;;;;;;;;;;;;;;;16.78;70.28;99667.84;1672492;85;20168;-67
2022/07/13 05:12:57;;;;;;;;;;;;;;;16.85;69.81;99672.21;1647793;86;20185;-68
2022/07/13 05:15:32;;;;;;;;;;;;;;;16.92;69.66;99663.63;1669026;85;21166;-68
2022/07/13 05:18:05;;;;;;;;;;;;;;;16.97;69.37;99664.80;1672404;85;20173;-67
2022/07/13 05:20:34;;;;;;;;;;;;;;;17.01;69.40;99658.98;1672367;86;20227;-68
2022/07/13 05:23:11;;;;;;;;;;;;;;;17.09;68.87;99657.62;1672597;85;20162;-69
2022/07/13 05:25:38;;;;;;;;;;;;;;;17.12;68.37;99650.80;1672314;85;20149;-69
2022/07/13 05:28:13;;;;;;;;;;;;;;;16.97;68.86;99652.09;1675199;84;21157;-68
2022/07/13 05:30:40;;;;;;;;;;;;;;;17.01;68.92;99645.49;1674831;84;20183;-68
2022/07/13 05:33:07;;;;;;;;;;;;;;;16.99;68.77;99655.83;1674099;84;20622;-68
2022/07/13 05:35:34;;;;;;;;;;;;;;;17.00;68.83;99653.36;1674239;84;20209;-67
2022/07/13 05:38:01;;;;;;;;;;;;;;;16.99;68.67;99646.39;1674666;84;20181;-68
2022/07/13 05:40:28;;;;;;;;;;;;;;;17.02;68.71;99647.09;1673192;84;22252;-67
2022/07/13 05:42:54;;;;;;;;;;;;;;;17.06;68.57;99646.12;1672313;84;20189;-67
2022/07/13 05:45:22;;;;;;;;;;;;;;;17.08;68.46;99647.95;1670941;84;20134;-68
2022/07/13 05:47:48;;;;;;;;;;;;;;;17.11;68.60;99642.47;1673700;84;20149;-68
2022/07/13 05:50:16;;;;;;;;;;;;;;;17.10;68.52;99648.40;1673870;84;20141;-67
2022/07/13 05:52:43;;;;;;;;;;;;;;;17.13;68.52;99648.31;1674154;84;21109;-68
2022/07/13 05:55:12;;;;;;;;;;;;;;;17.16;68.46;99639.58;1674017;84;20232;-67
2022/07/13 05:57:39;;;;;;;;;;;;;;;16.97;68.98;99639.16;1644755;85;20184;-67
2022/07/13 06:00:10;;;;;;;;;;;;;;;16.83;69.68;99638.02;1670834;84;20446;-68
2022/07/13 06:02:39;;;;;;;;;;;;;;;16.82;69.93;99635.09;1674208;84;20152;-68
2022/07/13 06:05:06;;;;;;;;;;;;;;;16.87;70.11;99624.12;1642814;84;21103;-68
2022/07/13 06:07:32;;;;;;;;;;;;;;;17.34;69.31;99635.71;1673563;84;20155;-66
2022/07/13 06:10:00;;;;;;;;;;;;;;;17.50;68.59;99612.98;1673450;84;20180;-69
2022/07/13 06:12:28;;;;;;;;;;;;;;;17.59;68.08;99627.80;1671522;84;20145;-68
2022/07/13 06:14:54;;;;;;;;;;;;;;;17.67;67.85;99627.50;1671578;84;20430;-68
2022/07/13 06:17:21;;;;;;;;;;;;;;;17.71;67.86;99624.41;1673705;84;21055;-67
2022/07/13 06:19:49;;;;;;;;;;;;;;;17.75;67.79;99623.98;1675430;85;20145;-68
2022/07/13 06:22:16;;;;;;;;;;;;;;;17.77;67.72;99632.02;1675684;85;20157;-67
2022/07/13 06:24:43;;;;;;;;;;;;;;;17.75;67.42;99626.67;1672141;85;20209;-68
2022/07/13 06:27:10;;;;;;;;;;;;;;;17.70;67.30;99618.75;1670365;86;20142;-70
2022/07/13 06:29:38;;;;;;;;;;;;;;;17.23;68.55;99628.28;1650684;85;20504;-67
2022/07/13 06:32:05;;;;;;;;;;;;;;;17.50;68.03;99616.24;1671369;84;20153;-68
2022/07/13 06:34:31;;;;;;;;;;;;;;;17.58;67.65;99614.07;1646278;86;20153;-67
2022/07/13 06:36:58;;;;;;;;;;;;;;;17.65;67.69;99622.45;1672606;86;20167;-70
2022/07/13 06:39:24;;;;;;;;;;;;;;;17.72;67.59;99615.96;1672528;86;20177;-67
2022/07/13 06:41:50;;;;;;;;;;;;;;;17.76;67.47;99617.45;1672355;86;21131;-69
2022/07/13 06:44:17;;;;;;;;;;;;;;;17.41;68.54;99622.27;1672416;86;20145;-68
2022/07/13 06:46:43;;;;;;;;;;;;;;;17.31;68.79;99625.56;1674566;85;20211;-68
2022/07/13 06:49:09;;;;;;;;;;;;;;;17.26;68.85;99610.89;1675489;85;20333;-68
2022/07/13 06:51:36;;;;;;;;;;;;;;;17.20;69.06;99614.88;1675646;85;20472;-68
2022/07/13 06:54:03;;;;;;;;;;;;;;;17.13;69.13;99619.20;1675497;85;21135;-68
2022/07/13 06:56:29;;;;;;;;;;;;;;;17.05;69.45;99628.36;1675509;85;20158;-68
2022/07/13 06:58:55;;;;;;;;;;;;;;;16.99;69.70;99627.51;1673048;85;20157;-68
2022/07/13 07:01:24;;;;;;;;;;;;;;;16.99;69.86;99628.86;1672478;85;20145;-67
2022/07/13 07:03:52;;;;;;;;;;;;;;;16.98;69.90;99629.42;1672302;85;20145;-66
2022/07/13 07:06:20;;;;;;;;;;;;;;;16.98;70.09;99622.67;1672520;85;21281;-67
2022/07/13 07:08:49;;;;;;;;;;;;;;;16.94;70.23;99635.20;1675565;85;20174;-67
2022/07/13 07:11:15;;;;;;;;;;;;;;;16.96;70.58;99628.94;1675658;85;20174;-67
2022/07/13 07:13:42;;;;;;;;;;;;;;;16.98;70.93;99631.30;1674816;85;20295;-67
2022/07/13 07:16:08;;;;;;;;;;;;;;;16.96;71.10;99631.63;1672418;85;20165;-66
2022/07/13 07:18:35;;;;;;;;;;;;;;;16.98;71.34;99625.38;1675273;85;21187;-68
2022/07/13 07:21:01;;;;;;;;;;;;;;;16.99;71.33;99638.30;1671376;84;20181;-67
2022/07/13 07:23:29;;;;;;;;;;;;;;;16.99;71.51;99616.16;1674938;84;20145;-68
2022/07/13 07:25:55;;;;;;;;;;;;;;;16.97;71.37;99626.47;1674751;84;20158;-70
2022/07/13 07:28:21;;;;;;;;;;;;;;;16.95;71.44;99634.11;1674752;84;20145;-67
2022/07/13 07:30:51;;;;;;;;;;;;;;;16.91;71.60;99629.09;1673634;84;22437;-67
2022/07/13 07:33:18;;;;;;;;;;;;;;;16.90;71.52;99631.56;1674267;84;20149;-69
2022/07/13 07:35:45;;;;;;;;;;;;;;;16.93;71.77;99630.14;1673526;84;20188;-67
2022/07/13 07:38:11;;;;;;;;;;;;;;;16.95;72.04;99626.02;1654505;84;20215;-66
2022/07/13 07:40:37;;;;;;;;;;;;;;;16.95;71.80;99627.36;1645778;87;20522;-68
2022/07/13 07:43:04;;;;;;;;;;;;;;;16.98;71.84;99625.38;1646720;84;21141;-67
2022/07/13 07:45:31;;;;;;;;;;;;;;;17.00;72.00;99629.08;1670980;86;20192;-66
2022/07/13 07:47:57;;;;;;;;;;;;;;;17.06;72.03;99631.28;1672794;86;20547;-68
2022/07/13 07:50:24;;;;;;;;;;;;;;;17.13;71.75;99619.98;1672247;85;20205;-68
2022/07/13 07:52:52;;;;;;;;;;;;;;;17.19;71.74;99621.40;1672756;86;20144;-66
2022/07/13 07:55:19;;;;;;;;;;;;;;;17.28;71.72;99614.06;1672635;85;21120;-67
2022/07/13 07:57:49;;;;;;;;;;;;;;;17.31;72.06;99618.03;1648438;87;20180;-67
2022/07/13 08:00:16;;;;;;;;;;;;;;;17.34;72.27;99614.12;1648260;87;20430;-68
2022/07/13 08:02:43;;;;;;;;;;;;;;;17.38;72.06;99616.95;1648417;87;20333;-67
2022/07/13 08:05:10;;;;;;;;;;;;;;;17.40;72.13;99617.97;1649290;85;20274;-68
2022/07/13 08:07:45;;;;;;;;;;;;;;;17.36;72.18;99627.27;1670419;85;21143;-67
2022/07/13 08:10:12;;;;;;;;;;;;;;;17.32;72.54;99624.44;1670182;86;20488;-68
2022/07/13 08:12:39;;;;;;;;;;;;;;;17.28;72.75;99634.86;1670744;86;20142;-68
2022/07/13 08:15:09;;;;;;;;;;;;;;;17.25;73.04;99631.46;1670342;85;20125;-68
2022/07/13 08:17:37;;;;;;;;;;;;;;;17.32;72.99;99622.30;1670230;86;20432;-67
2022/07/13 08:20:04;;;;;;;;;;;;;;;17.22;73.15;99630.77;1670359;86;21135;-69
2022/07/13 08:22:31;;;;;;;;;;;;;;;17.26;73.34;99632.47;1670550;85;20157;-68
2022/07/13 08:24:57;;;;;;;;;;;;;;;17.23;73.37;99635.03;1671295;84;20157;-67
2022/07/13 08:27:23;;;;;;;;;;;;;;;17.25;73.50;99640.34;1671583;84;20204;-68
2022/07/13 08:29:49;;;;;;;;;;;;;;;17.27;73.50;99633.27;1673549;84;20149;-68
2022/07/13 08:32:16;;;;;;;;;;;;;;;17.28;73.46;99635.66;1673613;84;21163;-67
2022/07/13 08:40:15;;;;;;;;;;;;;;;17.22;73.32;99642.91;1673016;84;20336;-67
2022/07/13 08:42:41;;;;;;;;;;;;;;;17.18;73.28;99646.02;1674415;84;20208;-68
2022/07/13 08:45:08;;;;;;;;;;;;;;;17.39;72.65;99645.52;1673678;84;21204;-68
2022/07/13 08:47:37;;;;;;;;;;;;;;;17.51;72.22;99644.28;1674812;84;20216;-69
2022/07/13 08:50:06;;;;;;;;;;;;;;;17.53;72.15;99648.78;1674653;84;20170;-72
2022/07/13 08:52:37;;;;;;;;;;;;;;;17.51;72.43;99643.50;1673843;84;20508;-68
2022/07/13 08:55:06;;;;;;;;;;;;;;;17.19;73.56;99638.16;1674649;84;20144;-66
2022/07/13 08:57:36;;;;;;;;;;;;;;;17.19;73.96;99635.45;1674055;84;21933;-68
2022/07/13 09:00:08;;;;;;;;;;;;;;;17.18;73.78;99640.06;1673493;84;20141;-68
2022/07/13 09:02:35;;;;;;;;;;;;;;;17.20;73.98;99649.95;1674223;84;20204;-68
2022/07/13 09:05:04;;;;;;;;;;;;;;;17.19;74.03;99646.25;1673441;84;20175;-68
2022/07/13 09:07:32;;;;;;;;;;;;;;;17.23;74.20;99639.08;1674189;84;20149;-68
2022/07/13 09:09:58;;;;;;;;;;;;;;;17.23;74.22;99640.43;1672152;84;21135;-68
2022/07/13 09:12:26;;;;;;;;;;;;;;;17.20;74.31;99633.77;1648957;84;20169;-70
2022/07/13 09:14:58;;;;;;;;;;;;;;;17.22;74.39;99635.59;1673585;84;20277;-67
2022/07/13 09:17:36;;;;;;;;;;;;;;;17.28;74.36;99636.22;1672901;84;20230;-68
2022/07/13 09:20:12;;;;;;;;;;;;;;;17.38;74.48;99639.90;1675874;85;20173;-67
2022/07/13 09:22:55;;;;;;;;;;;;;;;17.48;74.55;99634.13;1674415;85;21135;-67
2022/07/13 09:25:28;;;;;;;;;;;;;;;17.52;74.14;99635.06;1672478;85;20204;-68
2022/07/13 09:27:55;;;;;;;;;;;;;;;17.49;74.28;99631.66;1673861;84;20475;-68
2022/07/13 09:30:24;;;;;;;;;;;;;;;17.53;74.49;99633.14;1673999;84;20471;-68
2022/07/13 09:32:52;;;;;;;;;;;;;;;17.54;74.49;99627.44;1673347;84;20677;-67
2022/07/13 09:35:21;;;;;;;;;;;;;;;17.55;74.63;99627.66;1673473;84;21147;-68
2022/07/13 09:37:47;;;;;;;;;;;;;;;17.52;74.57;99626.95;1674162;84;20464;-68
2022/07/13 09:40:17;;;;;;;;;;;;;;;17.53;74.89;99621.78;1673038;84;20133;-68
2022/07/13 09:42:45;;;;;;;;;;;;;;;17.56;75.16;99614.38;1673670;84;20145;-68
2022/07/13 09:48:00;;;;;;;;;;;;;;;17.67;75.07;99619.41;1672148;84;20208;-68
2022/07/13 09:50:37;;;;;;;;;;;;;;;17.69;75.10;99620.66;1673445;84;20332;-68
2022/07/13 09:53:04;;;;;;;;;;;;;;;17.68;74.91;99631.81;1674608;84;20473;-67
2022/07/13 09:55:30;;;;;;;;;;;;;;;17.68;75.11;99629.11;1648381;84;20141;-68
2022/07/13 09:57:58;;;;;;;;;;;;;;;17.68;75.10;99627.19;1673229;84;20271;-68
2022/07/13 10:00:24;;;;;;;;;;;;;;;17.72;75.21;99621.36;1646042;85;21800;-67
2022/07/13 10:02:51;;;;;;;;;;;;;;;17.78;75.30;99630.11;1674166;85;20183;-67
2022/07/13 10:05:18;;;;;;;;;;;;;;;17.84;75.21;99621.26;1673117;85;20618;-68
2022/07/13 10:07:46;;;;;;;;;;;;;;;17.90;74.97;99619.39;1671156;86;20291;-68
2022/07/13 10:10:16;;;;;;;;;;;;;;;17.94;74.37;99620.30;1672431;85;20173;-68
2022/07/13 10:12:43;;;;;;;;;;;;;;;17.93;74.14;99616.03;1674863;85;22248;-69
2022/07/13 10:15:13;;;;;;;;;;;;;;;17.98;74.30;99598.82;1667109;84;20246;-68
2022/07/13 10:17:50;;;;;;;;;;;;;;;18.02;74.29;99611.33;1673701;84;20152;-67
2022/07/13 10:20:21;;;;;;;;;;;;;;;18.12;74.45;99608.01;1652369;85;20149;-69
2022/07/13 10:22:59;;;;;;;;;;;;;;;18.21;73.84;99612.78;1668946;84;20207;-67
2022/07/13 10:25:50;;;;;;;;;;;;;;;18.26;73.76;99602.57;1674398;85;21108;-69
2022/07/13 10:28:23;;;;;;;;;;;;;;;18.31;73.34;99606.19;1675453;85;20499;-68
2022/07/13 10:30:54;;;;;;;;;;;;;;;18.28;72.88;99606.28;1675639;85;20178;-68
2022/07/13 10:33:29;;;;;;;;;;;;;;;18.27;72.66;99606.06;1675685;85;20834;-68
2022/07/13 10:36:00;;;;;;;;;;;;;;;18.26;72.47;99607.16;1675606;85;20268;-68
2022/07/13 10:38:31;;;;;;;;;;;;;;;18.21;72.26;99600.62;1675239;85;21840;-68
2022/07/13 10:41:29;;;;;;;;;;;;;;;18.15;72.23;99607.34;1645872;86;20503;-68
2022/07/13 10:44:41;;;;;;;;;;;;;;;18.13;72.49;99609.05;1670349;86;20209;-67
2022/07/13 10:47:19;;;;;;;;;;;;;;;18.18;72.73;99599.93;1670254;85;20429;-67
2022/07/13 10:52:28;;;;;;;;;;;;;;;18.25;72.50;99590.16;1641757;86;21272;-68
2022/07/13 10:55:07;;;;;;;;;;;;;;;18.26;72.27;99599.87;1672061;84;20145;-67
2022/07/13 10:57:42;;;;;;;;;;;;;;;18.68;70.85;99603.03;1670788;86;20137;-68
2022/07/13 11:00:44;;;;;;;;;;;;;;;18.31;71.58;99604.27;1648145;87;20224;-68
2022/07/13 11:03:37;;;;;;;;;;;;;;;18.23;71.98;99597.04;1648393;87;20151;-68
2022/07/13 11:06:17;;;;;;;;;;;;;;;18.17;71.79;99593.73;1647782;87;21217;-68
2022/07/13 11:09:14;;;;;;;;;;;;;;;18.14;72.25;99593.05;1647661;87;20143;-68
2022/07/13 11:11:57;;;;;;;;;;;;;;;18.16;72.31;99586.73;1673533;85;20275;-67
2022/07/13 11:14:41;;;;;;;;;;;;;;;18.21;72.59;99584.41;1670674;85;20182;-67
2022/07/13 11:17:27;;;;;;;;;;;;;;;18.28;72.59;99590.06;1670360;85;20443;-67
2022/07/13 11:20:11;;;;;;;;;;;;;;;18.32;72.53;99590.97;1675208;85;21414;-68
2022/07/13 11:25:55;;;;;;;;;;;;;;;18.20;72.28;99602.54;1648551;86;20181;-68
2022/07/13 11:28:41;;;;;;;;;;;;;;;18.02;72.53;99596.47;1648644;86;20147;-67
2022/07/13 11:31:20;;;;;;;;;;;;;;;17.92;72.85;99595.52;1668541;86;20153;-68
2022/07/13 11:34:01;;;;;;;;;;;;;;;17.87;73.11;99601.66;1649656;86;21267;-68
2022/07/13 11:36:42;;;;;;;;;;;;;;;17.78;73.20;99605.80;1672908;85;20205;-68
2022/07/13 11:39:33;;;;;;;;;;;;;;;17.65;73.35;99608.16;1672358;85;20479;-68
2022/07/13 11:42:02;;;;;;;;;;;;;;;17.57;73.72;99605.19;1680615;84;20442;-69
2022/07/13 11:44:30;;;;;;;;;;;;;;;17.52;74.19;99607.27;1679205;84;20172;-68
2022/07/13 11:46:59;;;;;;;;;;;;;;;17.44;74.22;99617.01;1684282;85;21147;-68
2022/07/13 11:49:27;;;;;;;;;;;;;;;17.38;74.44;99605.37;1667423;85;20249;-69
2022/07/13 11:51:53;;;;;;;;;;;;;;;17.35;74.74;99610.86;1675848;85;20252;-69
2022/07/13 11:54:22;;;;;;;;;;;;;;;17.31;74.90;99609.37;1675733;85;20145;-69
2022/07/13 11:56:53;;;;;;;;;;;;;;;17.25;75.15;99610.66;1675847;85;20178;-68
2022/07/13 11:59:40;;;;;;;;;;;;;;;17.23;75.44;99607.48;1674026;84;21753;-69
2022/07/13 12:02:09;;;;;;;;;;;;;;;17.24;75.62;99601.52;1671355;84;20225;-67
2022/07/13 12:04:40;;;;;;;;;;;;;;;17.24;75.81;99601.52;1674467;84;20235;-68
2022/07/13 12:07:28;;;;;;;;;;;;;;;17.24;76.04;99600.17;1674621;84;20180;-68
2022/07/13 12:10:00;;;;;;;;;;;;;;;17.23;76.20;99590.50;1672021;85;20445;-67
2022/07/13 12:12:29;;;;;;;;;;;;;;;17.22;76.46;99597.03;1675754;85;20228;-66
2022/07/13 12:14:58;;;;;;;;;;;;;;;17.20;76.56;99601.38;1675380;85;20995;-67
2022/07/13 12:17:27;;;;;;;;;;;;;;;17.19;76.88;99605.77;1676061;85;20220;-68
2022/07/13 12:20:13;;;;;;;;;;;;;;;17.19;77.11;99605.77;1675612;85;20174;-67
2022/07/13 12:22:40;;;;;;;;;;;;;;;17.20;77.31;99594.64;1671735;84;20201;-68
2022/07/13 12:25:07;;;;;;;;;;;;;;;17.22;77.43;99597.03;1675090;85;21117;-67
2022/07/13 12:27:34;;;;;;;;;;;;;;;17.18;77.48;99603.63;1675868;85;20161;-64
2022/07/13 12:30:11;;;;;;;;;;;;;;;17.14;77.69;99614.03;1672026;84;20152;-68
2022/07/13 12:33:06;;;;;;;;;;;;;;;17.11;77.79;99610.88;1673285;84;20177;-66
2022/07/13 12:35:38;;;;;;;;;;;;;;;17.13;77.88;99600.31;1675626;85;20157;-68
2022/07/13 12:38:08;;;;;;;;;;;;;;;17.09;77.98;99605.01;1673547;84;21836;-67
2022/07/13 12:40:44;;;;;;;;;;;;;;;17.10;78.31;99593.66;1672814;84;21332;-68
2022/07/13 12:43:29;;;;;;;;;;;;;;;17.16;78.48;99593.71;1673621;84;20215;-67
2022/07/13 12:45:58;;;;;;;;;;;;;;;17.23;78.71;99597.25;1683695;84;20529;-68
2022/07/13 12:48:27;;;;;;;;;;;;;;;17.30;78.95;99587.52;1679673;84;20185;-68
2022/07/13 12:51:02;;;;;;;;;;;;;;;17.38;78.89;99590.53;1673419;84;21530;-67
2022/07/13 12:53:48;;;;;;;;;;;;;;;17.43;78.85;99587.06;1674123;84;20422;-68
2022/07/13 12:56:15;;;;;;;;;;;;;;;17.50;78.84;99583.28;1670260;84;20176;-68
2022/07/13 12:58:50;;;;;;;;;;;;;;;17.62;78.71;99592.61;1671228;84;38018;-68
2022/07/13 13:01:37;;;;;;;;;;;;;;;17.68;78.45;99593.44;1672321;84;20223;-68
2022/07/13 13:04:07;;;;;;;;;;;;;;;17.72;78.06;99583.55;1673966;84;21349;-68
2022/07/13 13:06:33;;;;;;;;;;;;;;;17.70;77.59;99587.16;1671203;84;20139;-68
2022/07/13 13:09:04;;;;;;;;;;;;;;;17.70;77.50;99592.56;1674369;84;20215;-68
2022/07/13 13:11:31;;;;;;;;;;;;;;;17.65;77.29;99587.34;1643845;84;20155;-68
2022/07/13 13:13:59;;;;;;;;;;;;;;;17.54;77.12;99590.98;1674293;84;20145;-68
2022/07/13 13:16:25;;;;;;;;;;;;;;;17.49;77.48;99589.81;1670562;84;21162;-68
2022/07/13 13:18:52;;;;;;;;;;;;;;;17.47;77.56;99588.02;1675469;84;20444;-69